Latest Coastal Weather Observations for Derby

IDW60701

Issued at 9:23 am WST Saturday 1 October 2016 (issued every 10 minutes, with the page automatically refreshed every 10 minutes)

About coastal observations | Map of coastal stations | Coastal observations for WA | Marine services | Other Formats
Station Details ID: 003032 Name: DERBY AERO Lat: -17.37 Lon: 123.66 Height: 6.2 m
Data from the previous 72 hours. | See also: Recent months at Derby
Date/Time
WST
Temp
°C
Wind Pressure Rain since
9am
mm
Weather Cloud Vis
km
Sea
Height
m
Swell
Dir  Spd
kts
Gust
kts
hPa Trend Height
m
Period
s
Dir
01/09:00am 28.7 S 8 11 1011.5 - 0.0 - - - - - - -
01/08:30am 27.8 S 9 12 1011.3 - 0.0 - - - - - - -
01/08:00am 27.7 S 11 14 1011.1 - 0.0 - - - - - - -
01/07:30am 27.3 SSE 9 11 1010.7 - 0.0 - - - - - - -
01/07:00am 26.7 SSE 8 10 1010.3 - 0.0 - - - - - - -
01/06:30am 26.4 SSE 7 9 1010.0 - 0.0 - - - - - - -
01/06:00am 26.1 S 7 8 1009.8 - 0.0 - - - - - - -
01/05:30am 26.1 S 5 7 1009.6 - 0.0 - - - - - - -
01/05:00am 26.1 S 7 9 1009.1 - 0.0 - - - - - - -
01/04:30am 25.9 SSW 6 8 1008.6 - 0.0 - - - - - - -
01/04:00am 25.4 SSW 6 7 1008.1 - 0.0 - - - - - - -
01/03:30am 25.8 S 5 6 1008.0 - 0.0 - - - - - - -
01/03:00am 26.6 S 5 6 1007.7 - 0.0 - - - - - - -
01/02:30am 26.7 S 6 7 1007.7 - 0.0 - - - - - - -
01/02:00am 27.3 SSE 6 7 1007.8 - 0.0 - - - - - - -
01/01:30am 27.4 S 6 8 1008.0 - 0.0 - - - - - - -
01/01:00am 27.5 S 5 6 1008.3 - 0.0 - - - - - - -
01/12:30am 28.0 S 5 7 1008.6 - 0.0 - - - - - - -
01/12:00am 28.4 S 7 9 1008.8 - 0.0 - - - - - - -
 
Date/Time
WST
Temp
°C
Wind Pressure Rain since
9am
mm
Weather Cloud Vis
km
Sea
Height
m
Swell
Dir  Spd
kts
Gust
kts
hPa Trend Height
m
Period
s
Dir
30/11:30pm 28.5 SSW 6 8 1008.8 - 0.0 - - - - - - -
30/11:00pm 28.9 SSW 9 10 1008.9 - 0.0 - - - - - - -
30/10:30pm 28.9 SW 11 13 1008.8 - 0.0 - - - - - - -
30/10:00pm 30.2 W 9 11 1008.6 - 0.0 - - - - - - -
30/09:30pm 30.6 WNW 9 11 1008.4 - 0.0 - - - - - - -
30/09:00pm 30.9 WNW 9 11 1008.3 - 0.0 - - - - - - -
30/08:30pm 30.2 NW 9 11 1008.0 - 0.0 - - - - - - -
30/08:00pm 30.3 NW 11 13 1007.8 - 0.0 - - - - - - -
30/07:30pm 30.3 NW 14 17 1007.3 - 0.0 - - - - - - -
30/07:00pm 30.8 NW 15 17 1006.7 - 0.0 - - - - - - -
30/06:30pm 31.0 NNW 14 18 1006.2 - 0.0 - - - - - - -
30/06:00pm 31.4 NNW 13 19 1005.8 - 0.0 - - - - - - -
30/05:30pm 32.3 NNW 14 16 1005.6 - 0.0 - - - - - - -
30/05:00pm 33.3 NW 13 14 1005.1 - 0.0 - - - - - - -
30/04:30pm 34.5 NW 11 13 1005.0 - 0.0 - - - - - - -
30/04:00pm 35.7 WNW 11 14 1004.8 - 0.0 - - - - - - -
30/03:30pm 37.0 WNW 12 14 1004.5 - 0.0 - - - - - - -
30/03:00pm 36.6 NW 11 13 1004.6 - 0.0 - - - - - - -
30/02:30pm 37.3 NW 10 13 1004.7 - 0.0 - - - - - - -
30/02:00pm 36.8 WNW 10 12 1005.1 - 0.0 - - - - - - -
30/01:30pm 36.9 WNW 10 13 1005.4 - 0.0 - - - - - - -
30/01:00pm 36.8 WNW 10 13 1005.5 - 0.0 - - - - - - -
30/12:30pm 38.0 NW 9 13 1006.2 - 0.0 - - - - - - -
30/12:00pm 37.4 NW 9 13 1006.7 - 0.0 - - - - - - -
30/11:30am 38.1 NW 8 12 1007.4 - 0.0 - - - - - - -
30/11:00am 37.5 WSW 6 7 1007.9 - 0.0 - - - - - - -
30/10:30am 36.7 ESE 5 9 1008.5 - 0.0 - - - - - - -
30/10:00am 35.7 SSE 5 8 1008.9 - 0.0 - - - - - - -
30/09:30am 34.7 SE 6 9 1009.2 - 0.0 - - - - - - -
30/09:00am 33.4 SSE 7 10 1009.6 - 0.0 - - - - - - -
30/08:30am 32.5 SE 7 9 1009.7 - 0.0 - - - - - - -
30/08:00am 31.2 SE 6 8 1009.7 - 0.0 - - - - - - -
30/07:30am 28.9 SE 7 9 1009.4 - 0.0 - - - - - - -
30/07:00am 27.9 SE 7 10 1009.3 - 0.0 - - - - - - -
30/06:30am 26.7 S 6 7 1009.1 - 0.0 - - - - - - -
30/06:00am 25.5 S 5 7 1009.1 - 0.0 - - - - - - -
30/05:30am 26.6 SE 6 9 1008.7 - 0.0 - - - - - - -
30/05:00am 25.6 SSW 6 7 1008.9 - 0.0 - - - - - - -
30/04:30am 27.5 SE 6 7 1008.4 - 0.0 - - - - - - -
30/04:00am 27.5 ESE 4 6 1008.1 - 0.0 - - - - - - -
30/03:30am 27.4 SE 5 7 1007.9 - 0.0 - - - - - - -
30/03:00am 27.7 SSE 6 7 1007.8 - 0.0 - - - - - - -
30/02:30am 27.9 SSE 8 11 1007.8 - 0.0 - - - - - - -
30/02:00am 28.0 SE 7 10 1007.8 - 0.0 - - - - - - -
30/01:30am 28.3 SSE 7 8 1008.1 - 0.0 - - - - - - -
30/01:00am 28.5 SE 7 10 1008.0 - 0.0 - - - - - - -
30/12:30am 29.0 SE 9 11 1008.3 - 0.0 - - - - - - -
30/12:00am 28.8 SE 8 9 1008.5 - 0.0 - - - - - - -
 
Date/Time
WST
Temp
°C
Wind Pressure Rain since
9am
mm
Weather Cloud Vis
km
Sea
Height
m
Swell
Dir  Spd
kts
Gust
kts
hPa Trend Height
m
Period
s
Dir
29/11:30pm 27.4 SSE 6 7 1008.7 - 0.0 - - - - - - -
29/11:00pm 26.5 S 6 8 1009.0 - 0.0 - - - - - - -
29/10:30pm 29.2 SE 7 9 1009.0 - 0.0 - - - - - - -
29/10:00pm 29.5 SE 7 9 1009.0 - 0.0 - - - - - - -
29/09:30pm 29.6 SE 8 10 1009.0 - 0.0 - - - - - - -
29/09:00pm 29.3 SE 7 7 1009.1 - 0.0 - - - - - - -
29/08:30pm 29.1 SE 6 7 1009.1 - 0.0 - - - - - - -
29/08:00pm 29.9 SSE 7 8 1008.9 - 0.0 - - - - - - -
29/07:30pm 30.5 SSE 6 8 1008.6 - 0.0 - - - - - - -
29/07:00pm 31.3 SSE 7 9 1008.1 - 0.0 - - - - - - -
29/06:30pm 32.0 S 7 9 1007.8 - 0.0 - - - - - - -
29/06:00pm 34.2 SSE 9 12 1007.5 - 0.0 - - - - - - -
29/05:30pm 35.4 SSE 9 12 1007.1 - 0.0 - - - - - - -
29/05:00pm 36.2 S 8 11 1006.8 - 0.0 - - - - - - -
29/04:30pm 36.7 S 9 11 1006.6 - 0.0 - - - - - - -
29/04:00pm 37.2 SSE 8 11 1006.5 - 0.0 - - - - - - -
29/03:30pm 37.3 SSE 8 12 1006.5 - 0.0 - - - - - - -
29/03:00pm 37.0 SSE 10 14 1006.6 - 0.0 - - - - - - -
29/02:30pm 36.8 SSE 9 12 1006.7 - 0.0 - - - - - - -
29/02:00pm 37.1 SE 9 15 1007.0 - 0.0 - - - - - - -
29/01:30pm 36.8 SE 8 13 1007.6 - 0.0 - - - - - - -
29/01:00pm 36.7 ESE 9 13 1008.0 - 0.0 - - - - - - -
29/12:30pm 36.1 SE 10 16 1008.5 - 0.0 - - - - - - -
29/12:00pm 36.7 ESE 8 16 1009.0 - 0.0 - - - - - - -
29/11:30am 34.7 SE 11 15 1009.9 - 0.0 - - - - - - -
29/11:00am 34.2 SE 14 19 1010.4 - 0.0 - - - - - - -
29/10:30am 33.3 SE 14 18 1011.0 - 0.0 - - - - - - -
29/10:00am 32.5 SE 14 18 1011.6 - 0.0 - - - - - - -
29/09:30am 31.5 SE 13 17 1011.8 - 0.0 - - - - - - -
29/09:00am 31.3 SE 14 18 1012.0 - 0.0 - - - - - - -
29/08:30am 31.0 SE 14 19 1012.0 - 0.0 - - - - - - -
29/08:00am 30.7 SE 13 15 1011.8 - 0.0 - - - - - - -
29/07:30am 27.8 SE 9 13 1011.6 - 0.0 - - - - - - -
29/07:00am 27.0 SSE 8 11 1011.2 - 0.0 - - - - - - -
29/06:30am 26.2 SSE 5 7 1010.8 - 0.0 - - - - - - -
29/06:00am 25.8 SSE 5 7 1010.5 - 0.0 - - - - - - -
29/05:30am 25.9 SSE 5 6 1010.2 - 0.0 - - - - - - -
29/05:00am 26.0 ESE 4 4 1009.8 - 0.0 - - - - - - -
29/04:30am 26.3 SSE 4 5 1009.8 - 0.0 - - - - - - -
29/04:00am 26.5 SSE 3 4 1009.3 - 0.0 - - - - - - -
29/03:30am 26.6 SSE 4 5 1009.2 - 0.0 - - - - - - -
29/03:00am 26.7 S 3 4 1009.2 - 0.0 - - - - - - -
29/02:30am 26.8 S 3 4 1009.3 - 0.0 - - - - - - -
29/02:00am 26.9 S 4 5 1009.3 - 0.0 - - - - - - -
29/01:30am 26.8 S 4 5 1009.7 - 0.0 - - - - - - -
29/01:00am 27.1 S 5 5 1010.0 - 0.0 - - - - - - -
29/12:30am 27.4 S 5 6 1010.3 - 0.0 - - - - - - -
29/12:00am 27.7 S 4 5 1010.6 - 0.0 - - - - - - -
 
Date/Time
WST
Temp
°C
Wind Pressure Rain since
9am
mm
Weather Cloud Vis
km
Sea
Height
m
Swell
Dir  Spd
kts
Gust
kts
hPa Trend Height
m
Period
s
Dir
28/11:30pm 27.9 S 4 5 1010.6 - 0.0 - - - - - - -
28/11:00pm 28.1 SSE 5 6 1010.9 - 0.0 - - - - - - -
28/10:30pm 28.4 S 6 8 1011.1 - 0.0 - - - - - - -
28/10:00pm 28.7 SSE 7 9 1011.1 - 0.0 - - - - - - -
28/09:30pm 29.1 SSE 9 12 1010.9 - 0.0 - - - - - - -
28/09:00pm 29.5 SSE 10 13 1010.9 - 0.0 - - - - - - -
28/08:30pm 29.8 SSE 10 14 1010.6 - 0.0 - - - - - - -
28/08:00pm 30.2 S 13 16 1010.3 - 0.0 - - - - - - -
28/07:30pm 30.7 S 14 18 1010.1 - 0.0 - - - - - - -
28/07:00pm 31.4 S 14 18 1009.7 - 0.0 - - - - - - -
28/06:30pm 32.3 S 15 18 1009.2 - 0.0 - - - - - - -
28/06:00pm 33.2 S 16 20 1008.5 - 0.0 - - - - - - -
28/05:30pm 34.2 S 18 23 1008.0 - 0.0 - - - - - - -
28/05:00pm 35.7 S 13 17 1007.6 - 0.0 - - - - - - -
28/04:30pm 36.8 S 7 11 1007.2 - 0.0 - - - - - - -
28/04:00pm 37.0 ESE 7 10 1007.1 - 0.0 - - - - - - -
28/03:30pm 37.9 WNW 6 9 1007.2 - 0.0 - - - - - - -
28/03:00pm 37.3 SSW 10 16 1007.4 - 0.0 - - - - - - -
28/02:30pm 37.5 SW 5 10 1007.7 - 0.0 - - - - - - -
28/02:00pm 37.2 SW 8 12 1008.1 - 0.0 - - - - - - -
28/01:30pm 36.5 SW 9 14 1008.5 - 0.0 - - - - - - -
28/01:00pm 36.4 S 8 13 1009.0 - 0.0 - - - - - - -
28/12:30pm 36.4 SSW 9 13 1009.7 - 0.0 - - - - - - -
28/12:00pm 36.3 S 11 15 1010.3 - 0.0 - - - - - - -
28/11:30am 35.1 S 8 13 1010.9 - 0.0 - - - - - - -
28/11:00am 33.6 SSE 9 15 1011.3 - 0.0 - - - - - - -
28/10:30am 33.5 S 8 15 1011.7 - 0.0 - - - - - - -
28/10:00am 31.6 SSE 8 12 1012.2 - 0.0 - - - - - - -
28/09:30am 31.4 S 9 13 1012.4 - 0.0 - - - - - - -

Other Formats:

Comma delimited format used in spreadsheet applications
http://www.bom.gov.au/fwo/IDW60701/IDW60701.95205.axf

JavaScript Object Notation format (JSON) in row-major order
http://www.bom.gov.au/fwo/IDW60701/IDW60701.95205.json